createdAt,value
2022-09-10T00:00:46.696Z,71.71
2022-09-10T00:03:16.789Z,71.40
2022-09-10T00:05:49.119Z,71.37
2022-09-10T00:08:22.692Z,71.09
2022-09-10T00:10:54.838Z,70.77
2022-09-10T00:13:26.394Z,70.60
2022-09-10T00:15:58.750Z,70.98
2022-09-10T00:18:29.619Z,71.55
2022-09-10T00:21:01.831Z,72.34
2022-09-10T00:23:34.552Z,72.62
2022-09-10T00:26:15.131Z,72.04
2022-09-10T00:28:46.210Z,71.99
2022-09-10T00:31:16.884Z,71.77
2022-09-10T00:33:47.416Z,71.68
2022-09-10T00:36:19.497Z,72.15
2022-09-10T00:38:53.400Z,72.48
2022-09-10T00:41:27.049Z,72.62
2022-09-10T00:43:59.869Z,72.47
2022-09-10T00:46:42.781Z,72.29
2022-09-10T00:49:20.491Z,72.27
2022-09-10T00:51:54.548Z,72.30
2022-09-10T00:54:30.316Z,71.69
2022-09-10T00:57:11.505Z,71.80
2022-09-10T00:59:45.247Z,72.00
2022-09-10T01:02:15.468Z,71.96
2022-09-10T01:04:46.333Z,72.56
2022-09-10T01:07:18.136Z,72.32
2022-09-10T01:09:51.475Z,72.57
2022-09-10T01:12:44.074Z,72.09
2022-09-10T01:15:31.174Z,72.29
2022-09-10T01:18:19.088Z,72.04
2022-09-10T01:21:04.197Z,72.43
2022-09-10T01:24:08.816Z,72.47
2022-09-10T01:27:16.113Z,72.44
2022-09-10T01:29:57.667Z,72.17
2022-09-10T01:32:37.402Z,72.25
2022-09-10T01:35:17.397Z,72.07
2022-09-10T01:37:53.324Z,71.59
2022-09-10T01:40:29.942Z,70.73
2022-09-10T01:43:08.438Z,70.52
2022-09-10T01:46:06.016Z,70.31
2022-09-10T01:49:13.934Z,70.54
2022-09-10T01:52:16.212Z,70.63
2022-09-10T01:54:59.094Z,70.24
2022-09-10T01:57:48.952Z,70.65
2022-09-10T02:00:22.679Z,70.77
2022-09-10T02:03:04.701Z,71.54
2022-09-10T02:05:40.351Z,71.06
2022-09-10T02:08:17.797Z,71.42
2022-09-10T02:10:56.709Z,71.25
2022-09-10T02:13:31.992Z,71.29
2022-09-10T02:16:31.900Z,72.17
2022-09-10T02:19:05.630Z,72.40
2022-09-10T02:21:36.670Z,72.30
2022-09-10T02:24:10.813Z,72.80
2022-09-10T02:26:44.774Z,72.98
2022-09-10T02:29:19.416Z,73.02
2022-09-10T02:31:49.687Z,73.04
2022-09-10T02:34:23.205Z,72.89
2022-09-10T02:36:53.368Z,73.12
2022-09-10T02:39:23.339Z,73.14
2022-09-10T02:41:54.077Z,73.30
2022-09-10T02:44:27.291Z,73.38
2022-09-10T02:46:58.723Z,73.08
2022-09-10T02:49:31.830Z,73.18
2022-09-10T02:52:02.928Z,73.90
2022-09-10T02:54:33.212Z,74.17
2022-09-10T02:57:03.372Z,74.41
2022-09-10T02:59:33.964Z,74.85
2022-09-10T03:02:04.204Z,75.36
2022-09-10T03:04:37.136Z,75.94
2022-09-10T03:07:07.734Z,76.45
2022-09-10T03:09:41.134Z,76.67
2022-09-10T03:12:11.333Z,76.46
2022-09-10T03:14:41.427Z,76.52
2022-09-10T03:17:11.652Z,77.16
2022-09-10T03:19:44.443Z,77.48
2022-09-10T03:22:14.504Z,77.51
2022-09-10T03:24:44.784Z,77.87
2022-09-10T03:27:16.139Z,77.81
2022-09-10T03:29:46.814Z,77.57
2022-09-10T03:32:17.492Z,77.75
2022-09-10T03:34:50.294Z,77.56
2022-09-10T03:37:21.166Z,78.01
2022-09-10T03:39:51.856Z,78.29
2022-09-10T03:42:22.681Z,78.55
2022-09-10T03:44:52.850Z,78.28
2022-09-10T03:47:22.942Z,78.46
2022-09-10T03:49:56.341Z,78.70
2022-09-10T03:52:26.740Z,78.60
2022-09-10T03:54:56.829Z,79.04
2022-09-10T03:57:27.012Z,78.96
2022-09-10T03:59:57.170Z,78.81
2022-09-10T04:02:27.948Z,79.15
2022-09-10T04:05:00.686Z,79.29
2022-09-10T04:07:30.802Z,79.61
2022-09-10T04:10:00.930Z,79.95
2022-09-10T04:12:31.313Z,79.55
2022-09-10T04:15:01.683Z,79.72
2022-09-10T04:17:31.778Z,79.67
2022-09-10T04:20:05.546Z,80.18
2022-09-10T04:22:37.335Z,80.23
2022-09-10T04:25:08.718Z,79.83
2022-09-10T04:27:38.892Z,79.68
2022-09-10T04:30:11.707Z,79.73
2022-09-10T04:32:42.264Z,79.59
2022-09-10T04:35:16.257Z,79.27
2022-09-10T04:37:46.907Z,79.47
2022-09-10T04:40:17.043Z,79.64
2022-09-10T04:42:47.211Z,79.68
2022-09-10T04:45:19.244Z,79.63
2022-09-10T04:47:49.603Z,79.66
2022-09-10T04:50:22.970Z,79.54
2022-09-10T04:53:17.089Z,79.05
2022-09-10T04:55:49.988Z,78.59
2022-09-10T04:58:20.242Z,78.64
2022-09-10T05:00:50.526Z,78.63
2022-09-10T05:03:22.588Z,78.43
2022-09-10T05:05:55.552Z,78.22
2022-09-10T05:08:26.885Z,77.54
2022-09-10T05:11:01.287Z,77.68
2022-09-10T05:13:31.908Z,77.95
2022-09-10T05:16:03.380Z,77.81
2022-09-10T05:18:35.761Z,78.05
2022-09-10T05:21:09.388Z,78.33
2022-09-10T05:23:39.585Z,77.88
2022-09-10T05:26:10.275Z,77.88
2022-09-10T05:28:40.587Z,77.07
2022-09-10T05:31:12.944Z,77.40
2022-09-10T05:33:44.407Z,77.32
2022-09-10T05:36:18.234Z,76.87
2022-09-10T05:38:48.613Z,76.85
2022-09-10T05:41:19.638Z,76.55
2022-09-10T05:43:52.371Z,76.27
2022-09-10T05:46:22.503Z,76.05
2022-09-10T05:48:56.012Z,76.30
2022-09-10T05:51:30.800Z,75.41
2022-09-10T05:54:05.661Z,75.60
2022-09-10T05:56:36.495Z,76.30
2022-09-10T05:59:06.794Z,76.06
2022-09-10T06:01:37.097Z,75.87
2022-09-10T06:04:09.354Z,76.17
2022-09-10T06:06:42.604Z,75.53
2022-09-10T06:09:15.484Z,74.36
2022-09-10T06:12:02.028Z,73.50
2022-09-10T06:14:33.076Z,73.38
2022-09-10T06:17:03.397Z,73.33
2022-09-10T06:19:35.095Z,72.75
2022-09-10T06:22:11.200Z,72.94
2022-09-10T06:24:43.913Z,72.86
2022-09-10T06:27:14.559Z,73.13
2022-09-10T06:29:44.632Z,73.13
2022-09-10T06:32:16.068Z,73.88
2022-09-10T06:34:46.952Z,73.40
2022-09-10T06:37:19.605Z,72.99
2022-09-10T06:39:49.721Z,74.11
2022-09-10T06:42:20.007Z,74.38
2022-09-10T06:45:03.233Z,73.82
2022-09-10T06:48:37.129Z,73.73
2022-09-10T06:50:56.790Z,75.11
2022-09-10T06:53:34.635Z,75.19
2022-09-10T06:56:08.755Z,75.11
2022-09-10T06:58:39.695Z,75.82
2022-09-10T07:01:11.971Z,75.89
2022-09-10T07:03:43.517Z,74.84
2022-09-10T07:06:15.856Z,76.12
2022-09-10T07:08:50.177Z,76.37
2022-09-10T07:11:20.219Z,75.59
2022-09-10T07:13:53.937Z,73.06
2022-09-10T07:16:31.376Z,69.73
2022-09-10T07:19:03.381Z,66.47
2022-09-10T07:21:43.684Z,66.68
2022-09-10T07:24:20.142Z,68.09
2022-09-10T07:27:04.834Z,67.80
2022-09-10T07:29:36.721Z,65.18
2022-09-10T07:32:13.236Z,63.95
2022-09-10T07:34:43.816Z,61.54
2022-09-10T07:37:15.670Z,59.65
2022-09-10T07:39:48.874Z,58.73
2022-09-10T07:42:20.598Z,56.94
2022-09-10T07:44:52.666Z,55.52
2022-09-10T07:47:23.294Z,56.30
2022-09-10T07:49:53.143Z,58.54
2022-09-10T07:52:23.261Z,56.33
2022-09-10T07:54:59.325Z,53.85
2022-09-10T07:57:31.610Z,49.78
2022-09-10T08:00:03.466Z,48.30
2022-09-10T08:02:46.993Z,45.92
2022-09-10T08:05:21.734Z,43.13
2022-09-10T08:07:57.234Z,41.65
2022-09-10T08:10:32.453Z,42.36
2022-09-10T08:13:02.581Z,39.88
2022-09-10T08:15:32.408Z,37.22
2022-09-10T08:18:04.905Z,36.49
2022-09-10T08:20:35.538Z,35.02
2022-09-10T08:23:05.694Z,34.80
2022-09-10T08:25:38.489Z,34.80
2022-09-10T08:28:08.648Z,33.12
2022-09-10T08:30:39.048Z,34.13
2022-09-10T08:33:09.340Z,37.59
2022-09-10T08:35:42.279Z,35.68
2022-09-10T08:38:12.946Z,34.39
2022-09-10T08:40:49.162Z,36.72
2022-09-10T08:43:25.280Z,38.74
2022-09-10T08:45:57.791Z,43.32
2022-09-10T08:48:30.363Z,45.55
2022-09-10T08:51:07.126Z,44.63
2022-09-10T08:53:48.855Z,42.59
2022-09-10T08:56:26.105Z,37.07
2022-09-10T08:59:03.289Z,34.56
2022-09-10T09:01:48.308Z,33.28
2022-09-10T09:04:30.250Z,33.75
2022-09-10T09:07:07.232Z,33.59
2022-09-10T09:09:37.896Z,40.48
2022-09-10T09:12:20.640Z,44.84
2022-09-10T09:15:08.852Z,41.09
2022-09-10T09:17:59.868Z,44.30
2022-09-10T09:20:46.582Z,47.65
2022-09-10T09:23:25.378Z,46.05
2022-09-10T09:26:04.281Z,44.19
2022-09-10T09:28:50.190Z,46.99
2022-09-10T09:31:27.178Z,41.12
2022-09-10T09:34:07.703Z,37.61
2022-09-10T09:36:46.785Z,40.74
2022-09-10T09:39:26.498Z,38.13
2022-09-10T09:42:07.126Z,42.65
2022-09-10T09:44:48.983Z,44.65
2022-09-10T09:47:19.208Z,41.30
2022-09-10T09:49:52.215Z,39.16
2022-09-10T09:52:25.441Z,36.55
2022-09-10T09:55:14.377Z,35.73
2022-09-10T09:57:47.261Z,36.12
2022-09-10T10:00:40.899Z,36.39
2022-09-10T10:03:26.881Z,34.41
2022-09-10T10:06:06.097Z,33.25
2022-09-10T10:08:41.526Z,32.97
2022-09-10T10:11:12.576Z,34.61
2022-09-10T10:13:46.104Z,39.43
2022-09-10T10:16:26.922Z,42.55
2022-09-10T10:18:57.241Z,45.48
2022-09-10T10:21:34.604Z,47.52
2022-09-10T10:24:06.103Z,43.52
2022-09-10T10:26:38.475Z,40.09
2022-09-10T10:29:10.871Z,39.19
2022-09-10T10:31:47.395Z,39.13
2022-09-10T10:34:40.516Z,37.25
2022-09-10T10:37:18.608Z,34.90
2022-09-10T10:40:14.758Z,37.90
2022-09-10T10:42:54.239Z,42.67
2022-09-10T10:45:52.737Z,40.29
2022-09-10T10:48:40.345Z,38.98
2022-09-10T10:51:19.771Z,36.50
2022-09-10T10:54:14.256Z,36.96
2022-09-10T10:56:56.419Z,35.65
2022-09-10T10:59:44.746Z,33.92
2022-09-10T11:02:20.955Z,32.21
2022-09-10T11:04:56.687Z,31.71
2022-09-10T11:07:34.022Z,30.72
2022-09-10T11:10:15.609Z,29.02
2022-09-10T11:12:52.056Z,28.42
2022-09-10T11:15:31.616Z,30.31
2022-09-10T11:18:09.854Z,30.22
2022-09-10T11:20:49.335Z,29.44
2022-09-10T11:23:29.769Z,29.55
2022-09-10T11:26:06.780Z,31.28
2022-09-10T11:28:43.683Z,30.91
2022-09-10T11:31:32.344Z,29.72
2022-09-10T11:34:08.776Z,33.76
2022-09-10T11:36:48.128Z,35.07
2022-09-10T11:39:25.201Z,38.33
2022-09-10T11:41:58.125Z,39.23
2022-09-10T11:44:47.248Z,37.89
2022-09-10T11:47:23.029Z,36.77
2022-09-10T11:50:01.288Z,38.75
2022-09-10T11:52:36.431Z,38.03
2022-09-10T11:55:08.621Z,38.44
2022-09-10T11:57:56.961Z,35.65
2022-09-10T12:00:27.196Z,36.95
2022-09-10T12:03:26.739Z,36.83
2022-09-10T12:06:03.846Z,31.70
2022-09-10T12:08:55.560Z,31.16
2022-09-10T12:11:35.572Z,30.23
2022-09-10T12:14:10.967Z,27.21
2022-09-10T12:16:48.444Z,27.08
2022-09-10T12:19:27.751Z,24.81
2022-09-10T12:22:01.815Z,24.50
2022-09-10T12:24:37.381Z,25.95
2022-09-10T12:27:10.211Z,27.56
2022-09-10T12:29:42.629Z,28.73
2022-09-10T12:32:39.722Z,30.08
2022-09-10T12:35:49.612Z,31.85
2022-09-10T12:38:52.758Z,31.79
2022-09-10T12:42:02.473Z,28.52
2022-09-10T12:44:56.793Z,26.55
2022-09-10T12:47:50.430Z,25.32
2022-09-10T12:50:37.219Z,26.60
2022-09-10T12:53:54.221Z,24.41
2022-09-10T12:57:12.874Z,27.65
2022-09-10T13:00:14.278Z,31.04
2022-09-10T13:02:53.625Z,29.15
2022-09-10T13:05:35.115Z,27.15
2022-09-10T13:08:21.449Z,25.75
2022-09-10T13:11:11.769Z,24.93
2022-09-10T13:13:47.996Z,24.36
2022-09-10T13:16:21.954Z,24.14
2022-09-10T13:18:57.016Z,26.64
2022-09-10T13:21:57.349Z,25.26
2022-09-10T13:24:43.338Z,25.90
2022-09-10T13:27:25.483Z,30.61
2022-09-10T13:30:17.522Z,34.57
2022-09-10T13:32:53.773Z,36.71
2022-09-10T13:36:06.905Z,38.05
2022-09-10T13:39:09.629Z,40.15
2022-09-10T13:42:20.821Z,41.50
2022-09-10T13:45:17.264Z,42.86
2022-09-10T13:47:52.172Z,46.21
2022-09-10T13:50:27.107Z,50.78
2022-09-10T13:53:01.782Z,55.33
2022-09-10T13:55:34.252Z,56.99
2022-09-10T13:58:12.211Z,59.29
2022-09-10T14:00:56.115Z,62.17
2022-09-10T14:03:28.690Z,58.95
2022-09-10T14:06:01.795Z,60.83
2022-09-10T14:08:35.793Z,60.45
2022-09-10T14:11:16.610Z,61.32
2022-09-10T14:13:51.949Z,63.59
2022-09-10T14:16:32.433Z,65.93
2022-09-10T14:19:05.808Z,67.76
2022-09-10T14:21:36.219Z,68.22
2022-09-10T14:24:06.508Z,69.10
2022-09-10T14:26:36.713Z,68.47
2022-09-10T14:29:27.148Z,68.39
2022-09-10T14:32:00.416Z,66.92
2022-09-10T14:34:36.256Z,67.32
2022-09-10T14:37:37.896Z,60.62
2022-09-10T14:40:21.684Z,57.14
2022-09-10T14:42:53.043Z,54.70
2022-09-10T14:45:42.525Z,44.22
2022-09-10T14:48:37.143Z,41.96
2022-09-10T14:51:14.574Z,38.41
2022-09-10T14:53:45.738Z,36.49
2022-09-10T14:56:25.853Z,35.37
2022-09-10T14:59:02.059Z,34.12
2022-09-10T15:01:34.507Z,37.00
2022-09-10T15:04:07.235Z,37.83
2022-09-10T15:06:37.279Z,36.36
2022-09-10T15:09:07.857Z,33.95
2022-09-10T15:11:40.039Z,34.01
2022-09-10T15:14:16.175Z,35.22
2022-09-10T15:16:46.697Z,34.28
2022-09-10T15:19:19.657Z,32.86
2022-09-10T15:21:50.155Z,31.92
2022-09-10T15:24:23.829Z,31.63
2022-09-10T15:26:56.499Z,30.73
2022-09-10T15:29:26.592Z,31.97
2022-09-10T15:31:59.574Z,33.11
2022-09-10T15:34:32.290Z,34.31
2022-09-10T15:37:03.155Z,37.19
2022-09-10T15:39:33.367Z,36.80
2022-09-10T15:42:03.834Z,38.13
2022-09-10T15:44:34.328Z,38.94
2022-09-10T15:47:05.179Z,40.17
2022-09-10T15:49:37.991Z,42.58
2022-09-10T15:52:08.246Z,43.13
2022-09-10T15:54:38.828Z,41.68
2022-09-10T15:57:09.014Z,41.98
2022-09-10T15:59:38.841Z,44.23
2022-09-10T16:02:14.750Z,46.47
2022-09-10T16:04:47.563Z,47.78
2022-09-10T16:07:17.703Z,49.29
2022-09-10T16:09:47.766Z,50.66
2022-09-10T16:12:17.961Z,52.01
2022-09-10T16:14:48.052Z,53.42
2022-09-10T16:17:18.346Z,54.40
2022-09-10T16:19:51.679Z,55.31
2022-09-10T16:22:21.852Z,56.26
2022-09-10T16:24:51.910Z,57.12
2022-09-10T16:27:22.744Z,57.45
2022-09-10T16:29:52.827Z,57.44
2022-09-10T16:32:22.934Z,58.04
2022-09-10T16:34:55.584Z,58.42
2022-09-10T16:37:26.261Z,59.52
2022-09-10T16:39:56.832Z,60.24
2022-09-10T16:42:27.424Z,60.90
2022-09-10T16:44:57.288Z,61.85
2022-09-10T16:47:27.431Z,62.41
2022-09-10T16:50:00.159Z,63.61
2022-09-10T16:52:30.970Z,63.23
2022-09-10T16:55:02.792Z,64.33
2022-09-10T16:57:33.031Z,64.41
2022-09-10T17:00:03.124Z,64.68
2022-09-10T17:02:34.745Z,65.19
2022-09-10T17:05:08.212Z,65.68
2022-09-10T17:07:38.332Z,65.92
2022-09-10T17:10:09.820Z,66.01
2022-09-10T17:12:40.083Z,65.88
2022-09-10T17:15:11.676Z,67.01
2022-09-10T17:17:41.785Z,67.92
2022-09-10T17:20:14.683Z,68.71
2022-09-10T17:22:44.751Z,69.23
2022-09-10T17:25:14.922Z,69.42
2022-09-10T17:27:45.004Z,69.43
2022-09-10T17:30:15.664Z,69.77
2022-09-10T17:32:45.778Z,70.54
2022-09-10T17:35:18.607Z,71.16
2022-09-10T17:37:49.193Z,71.57
2022-09-10T17:40:20.173Z,70.63
2022-09-10T17:42:51.673Z,71.28
2022-09-10T17:45:22.578Z,72.43
2022-09-10T17:47:52.622Z,72.84
2022-09-10T17:50:25.422Z,73.66
2022-09-10T17:52:55.445Z,73.65
2022-09-10T17:55:25.696Z,74.64
2022-09-10T17:57:56.215Z,75.34
2022-09-10T18:00:26.424Z,75.06
2022-09-10T18:02:56.582Z,74.59
2022-09-10T18:05:29.299Z,74.81
2022-09-10T18:07:59.358Z,75.18
2022-09-10T18:10:29.499Z,75.42
2022-09-10T18:13:00.418Z,74.47
2022-09-10T18:15:31.907Z,74.43
2022-09-10T18:18:02.261Z,73.65
2022-09-10T18:20:34.990Z,73.49
2022-09-10T18:23:05.096Z,73.40
2022-09-10T18:25:35.954Z,73.30
2022-09-10T18:28:06.189Z,74.01
2022-09-10T18:30:36.383Z,74.17
2022-09-10T18:33:06.532Z,74.39
2022-09-10T18:35:41.134Z,74.52
2022-09-10T18:38:11.256Z,75.12
2022-09-10T18:40:42.647Z,75.63
2022-09-10T18:43:13.742Z,75.62
2022-09-10T18:45:43.801Z,75.61
2022-09-10T18:48:13.886Z,75.40
2022-09-10T18:50:47.367Z,75.59
2022-09-10T18:53:18.449Z,75.52
2022-09-10T18:55:48.954Z,75.63
2022-09-10T18:58:19.260Z,76.56
2022-09-10T19:00:49.355Z,76.17
2022-09-10T19:03:19.673Z,75.95
2022-09-10T19:05:52.370Z,75.24
2022-09-10T19:08:22.426Z,75.30
2022-09-10T19:10:54.439Z,75.06
2022-09-10T19:13:25.287Z,75.40
2022-09-10T19:15:59.265Z,76.50
2022-09-10T19:18:29.429Z,77.18
2022-09-10T19:21:06.935Z,76.68
2022-09-10T19:23:37.726Z,76.33
2022-09-10T19:26:10.019Z,76.75
2022-09-10T19:28:40.744Z,76.73
2022-09-10T19:31:11.645Z,77.66
2022-09-10T19:33:42.138Z,77.74
2022-09-10T19:36:17.995Z,77.86
2022-09-10T19:38:49.184Z,78.45
2022-09-10T19:41:21.039Z,77.84
2022-09-10T19:43:53.954Z,78.42
2022-09-10T19:46:28.469Z,79.04
2022-09-10T19:48:59.572Z,78.97
2022-09-10T19:51:36.226Z,79.99
2022-09-10T19:54:06.814Z,80.05
2022-09-10T19:56:41.301Z,79.66
2022-09-10T19:59:12.892Z,79.95
2022-09-10T20:01:46.279Z,80.08
2022-09-10T20:04:17.123Z,80.36
2022-09-10T20:06:50.469Z,80.01
2022-09-10T20:09:20.923Z,80.42
2022-09-10T20:11:51.229Z,80.57
2022-09-10T20:14:21.356Z,80.65
2022-09-10T20:16:51.491Z,80.79
2022-09-10T20:19:22.200Z,80.73
2022-09-10T20:21:54.925Z,80.51
2022-09-10T20:24:25.119Z,80.54
2022-09-10T20:26:55.350Z,81.10
2022-09-10T20:29:25.697Z,81.68
2022-09-10T20:31:56.046Z,81.54
2022-09-10T20:34:26.549Z,80.94
2022-09-10T20:36:59.938Z,81.20
2022-09-10T20:39:31.778Z,81.06
2022-09-10T20:42:02.026Z,81.14
2022-09-10T20:44:32.115Z,80.47
2022-09-10T20:47:03.628Z,80.75
2022-09-10T20:49:33.815Z,80.75
2022-09-10T20:52:07.438Z,80.96
2022-09-10T20:54:37.517Z,80.58
2022-09-10T20:57:08.079Z,80.82
2022-09-10T20:59:38.148Z,81.05
2022-09-10T21:02:08.709Z,80.93
2022-09-10T21:04:39.474Z,81.52
2022-09-10T21:07:11.987Z,82.00
2022-09-10T21:09:42.203Z,81.92
2022-09-10T21:12:13.268Z,81.63
2022-09-10T21:14:43.431Z,81.70
2022-09-10T21:17:13.591Z,81.50
2022-09-10T21:19:43.736Z,81.35
2022-09-10T21:22:16.370Z,82.35
2022-09-10T21:24:46.507Z,81.93
2022-09-10T21:27:16.771Z,83.09
2022-09-10T21:29:47.217Z,83.58
2022-09-10T21:32:17.283Z,83.80
2022-09-10T21:34:47.503Z,83.63
2022-09-10T21:37:20.278Z,83.29
2022-09-10T21:39:50.366Z,82.82
2022-09-10T21:42:20.625Z,83.63
2022-09-10T21:44:50.737Z,83.40
2022-09-10T21:47:20.820Z,82.96
2022-09-10T21:49:51.095Z,83.70
2022-09-10T21:52:24.147Z,84.30
2022-09-10T21:54:54.182Z,84.73
2022-09-10T21:57:24.611Z,85.63
2022-09-10T21:59:54.663Z,85.98
2022-09-10T22:02:24.804Z,87.70
2022-09-10T22:04:54.942Z,87.59
2022-09-10T22:07:27.867Z,87.38
2022-09-10T22:09:57.954Z,87.61
2022-09-10T22:12:28.433Z,88.08
2022-09-10T22:14:59.002Z,87.97
2022-09-10T22:17:29.146Z,88.38
2022-09-10T22:19:59.221Z,89.39
2022-09-10T22:22:31.926Z,89.47
2022-09-10T22:25:02.134Z,89.36
2022-09-10T22:27:32.223Z,88.88
2022-09-10T22:30:04.909Z,89.27
2022-09-10T22:32:36.775Z,90.25
2022-09-10T22:35:07.626Z,90.23
2022-09-10T22:37:40.264Z,90.35
2022-09-10T22:40:11.671Z,91.00
2022-09-10T22:42:41.765Z,91.09
2022-09-10T22:45:13.852Z,90.61
2022-09-10T22:47:43.982Z,90.81
2022-09-10T22:50:14.084Z,91.01
2022-09-10T22:52:46.737Z,91.04
2022-09-10T22:55:16.945Z,91.10
2022-09-10T22:57:47.070Z,90.91
2022-09-10T23:00:18.027Z,90.71
2022-09-10T23:02:48.122Z,90.35
2022-09-10T23:05:18.487Z,90.43
2022-09-10T23:07:52.728Z,91.14
2022-09-10T23:10:22.932Z,92.64
2022-09-10T23:12:53.128Z,93.21
2022-09-10T23:15:23.241Z,93.42
2022-09-10T23:17:53.817Z,93.51
2022-09-10T23:20:25.165Z,93.16
2022-09-10T23:22:57.978Z,93.30
2022-09-10T23:25:28.139Z,93.50
2022-09-10T23:27:58.191Z,93.75
2022-09-10T23:30:29.968Z,93.95
2022-09-10T23:33:00.714Z,94.53
2022-09-10T23:35:30.826Z,94.54
2022-09-10T23:38:03.489Z,94.79
2022-09-10T23:40:34.296Z,95.20
2022-09-10T23:43:04.165Z,95.53
2022-09-10T23:45:34.236Z,95.48
2022-09-10T23:48:05.239Z,95.11
2022-09-10T23:50:35.488Z,95.80
2022-09-10T23:53:09.276Z,95.11
2022-09-10T23:55:40.246Z,95.50
2022-09-10T23:58:10.643Z,95.28
